Time;durP1;ratioP1;P1;durP2;ratioP2;P2;SDS_P1;SDS_P2;PMS_P1;PMS_P2;Temp;Humidity;BMP_temperature;BMP_pressure;BME280_temperature;BME280_humidity;BME280_pressure;Samples;Min_cycle;Max_cycle;Signal;HPM_P1;HPM_P2
2024/03/23 00:00:13;;;;;;;;;10.50;7.67;;;;;11.08;68.77;101397.97;2017834;28;2754460;-75
2024/03/23 00:01:24;;;;;;;;;10.00;8.33;;;;;11.08;68.72;101390.06;1980031;28;2758709;-75
2024/03/23 00:02:36;;;;;;;;;8.00;5.00;;;;;11.10;69.08;101399.66;2008906;28;2750729;-75
2024/03/23 00:03:47;;;;;;;;;12.33;11.33;;;;;11.13;69.26;101398.72;2011392;28;3509628;-75
2024/03/23 00:04:59;;;;;;;;;9.00;9.00;;;;;11.14;68.91;101400.41;2016365;28;2744045;-75
2024/03/23 00:06:13;;;;;;;;;6.00;6.00;;;;;11.14;68.84;101396.03;2035735;28;2738863;-75
2024/03/23 00:07:26;;;;;;;;;11.25;10.25;;;;;11.15;68.88;101402.16;1993246;28;1825284;-76
2024/03/23 00:08:37;;;;;;;;;14.67;10.67;;;;;11.14;68.79;101393.41;2013884;28;3514829;-75
2024/03/23 00:09:49;;;;;;;;;10.00;9.00;;;;;11.14;68.59;101397.78;1988687;28;2747161;-74
2024/03/23 00:11:02;;;;;;;;;10.00;9.00;;;;;11.12;68.43;101404.88;2009048;28;2749365;-74
2024/03/23 00:12:14;;;;;;;;;11.00;8.00;;;;;11.10;68.44;101404.03;2017198;28;2756511;-74
2024/03/23 00:13:26;;;;;;;;;11.00;9.00;;;;;11.09;68.66;101407.56;2006264;28;3477327;-74
2024/03/23 00:14:37;;;;;;;;;9.00;8.50;;;;;11.11;68.93;101400.53;2008296;28;2741961;-74
2024/03/23 00:15:49;;;;;;;;;12.00;10.00;;;;;11.12;68.81;101404.88;2031213;28;1846076;-75
2024/03/23 00:17:00;;;;;;;;;12.67;9.67;;;;;11.13;68.88;101418.00;1991710;28;3501811;-74
2024/03/23 00:18:12;;;;;;;;;10.67;7.67;;;;;11.14;68.58;101410.94;2015965;28;2763818;-76
2024/03/23 00:19:23;;;;;;;;;15.00;11.50;;;;;11.16;68.84;101410.94;2005582;28;2799314;-75
2024/03/23 00:20:35;;;;;;;;;14.50;9.00;;;;;11.18;68.96;101415.25;1998212;28;2775268;-76
2024/03/23 00:21:47;;;;;;;;;13.00;10.00;;;;;11.21;68.73;101414.31;1983470;28;3522768;-75
2024/03/23 00:22:58;;;;;;;;;11.67;11.00;;;;;11.22;68.42;101411.63;2014360;28;3499202;-74
2024/03/23 00:24:14;;;;;;;;;18.25;12.00;;;;;11.20;68.42;101420.47;2028110;28;1852329;-75
2024/03/23 00:25:26;;;;;;;;;11.50;9.50;;;;;11.19;68.54;101413.47;2017856;28;1833607;-78
2024/03/23 00:26:38;;;;;;;;;19.00;13.00;;;;;11.19;68.26;101409.06;2012977;28;1846594;-77
2024/03/23 00:27:51;;;;;;;;;12.00;11.00;;;;;11.20;68.09;101415.19;1997287;28;2796140;-75
2024/03/23 00:29:05;;;;;;;;;16.83;11.33;;;;;11.20;68.38;101418.72;2039420;28;1819075;-75
2024/03/23 00:30:18;;;;;;;;;14.50;12.50;;;;;11.19;68.39;101413.47;1996562;28;1844032;-74
2024/03/23 00:31:29;;;;;;;;;12.00;11.00;;;;;11.19;68.13;101416.09;2007257;28;2782599;-74
2024/03/23 00:32:41;;;;;;;;;13.00;11.50;;;;;11.17;67.87;101417.91;1999296;28;2795106;-74
2024/03/23 00:33:55;;;;;;;;;18.67;14.00;;;;;11.16;67.92;101429.34;2026629;28;1838852;-76
2024/03/23 00:35:09;;;;;;;;;14.00;10.33;;;;;11.12;68.03;101425.91;2014418;28;1830083;-74
2024/03/23 00:36:21;;;;;;;;;11.00;11.00;;;;;11.10;68.07;101428.59;1997644;28;2790228;-78
2024/03/23 00:37:33;;;;;;;;;16.00;12.67;;;;;11.08;67.92;101422.50;2009495;28;3525234;-75
2024/03/23 00:38:44;;;;;;;;;13.67;12.67;;;;;11.06;67.92;101418.19;2015929;28;1840931;-75
2024/03/23 00:39:59;;;;;;;;;17.00;14.00;;;;;11.04;68.15;101418.19;2013801;28;1831625;-75
2024/03/23 00:41:13;;;;;;;;;16.50;12.67;;;;;11.03;67.98;101417.34;2022523;28;1829518;-74
2024/03/23 00:42:24;;;;;;;;;16.00;11.67;;;;;11.03;68.36;101411.22;1982338;28;3528395;-75
2024/03/23 00:43:36;;;;;;;;;20.50;17.00;;;;;11.04;68.19;101412.94;2002427;28;2829432;-76
2024/03/23 00:44:48;;;;;;;;;14.50;14.00;;;;;11.03;67.83;101417.34;1978421;28;2792030;-74
2024/03/23 00:45:59;;;;;;;;;14.00;13.00;;;;;11.02;67.55;101414.75;2005551;28;2791973;-74
2024/03/23 00:47:11;;;;;;;;;16.50;13.00;;;;;11.00;67.49;101409.53;2003672;28;2802386;-75
2024/03/23 00:48:25;;;;;;;;;15.83;13.00;;;;;10.99;67.57;101410.41;2013859;28;1829445;-76
2024/03/23 00:49:37;;;;;;;;;16.00;13.50;;;;;10.98;67.67;101411.34;1982159;28;2795062;-75
2024/03/23 00:50:48;;;;;;;;;15.00;13.50;;;;;10.95;67.87;101415.78;2008104;28;2796501;-76
2024/03/23 00:52:00;;;;;;;;;15.00;13.00;;;;;10.94;68.07;101417.56;1989830;28;2802383;-75
2024/03/23 00:53:11;;;;;;;;;15.00;13.50;;;;;10.94;67.97;101422.81;1990079;28;2794049;-75
2024/03/23 00:54:22;;;;;;;;;17.00;14.00;;;;;10.90;67.95;101405.38;2004084;28;2804863;-75
2024/03/23 00:55:34;;;;;;;;;15.20;14.40;;;;;10.89;67.96;101398.41;2037754;28;1823300;-75
2024/03/23 00:56:47;;;;;;;;;15.33;13.83;;;;;10.89;67.21;101406.31;2046698;28;1825357;-74
2024/03/23 00:57:57;;;;;;;;;12.00;11.00;;;;;10.91;67.73;101401.88;1991991;28;2786749;-76
2024/03/23 00:59:08;;;;;;;;;17.00;14.00;;;;;10.86;67.95;101398.47;2026154;28;2810683;-75
2024/03/23 01:00:20;;;;;;;;;17.00;12.50;;;;;10.87;67.63;101400.19;2002443;28;2794034;-76
2024/03/23 01:01:31;;;;;;;;;17.00;15.00;;;;;10.85;67.66;101405.50;2013037;28;2807585;-75
2024/03/23 01:02:42;;;;;;;;;17.00;13.00;;;;;10.87;67.99;101401.06;2006470;28;2796069;-76
2024/03/23 01:03:53;;;;;;;;;14.00;13.50;;;;;10.87;67.47;101402.81;2008002;28;2786773;-76
2024/03/23 01:05:04;;;;;;;;;15.50;11.50;;;;;10.89;68.17;101401.03;2033446;28;2791945;-75
2024/03/23 01:06:15;;;;;;;;;15.75;11.75;;;;;10.90;67.59;101405.38;2029081;28;1842010;-75
2024/03/23 01:07:26;;;;;;;;;15.00;11.00;;;;;10.90;67.76;101405.38;2006985;28;2788821;-76
2024/03/23 01:08:37;;;;;;;;;16.50;13.00;;;;;10.90;67.79;101406.25;2032313;28;2802311;-76
2024/03/23 01:09:48;;;;;;;;;11.67;9.00;;;;;10.93;67.63;101404.44;2014649;28;1841987;-76
2024/03/23 01:11:00;;;;;;;;;11.67;8.67;;;;;10.90;67.71;101397.50;1985876;28;3471093;-75
2024/03/23 01:12:10;;;;;;;;;16.00;12.50;;;;;10.88;67.92;101399.31;2013057;28;2792992;-75
2024/03/23 01:13:22;;;;;;;;;14.50;12.00;;;;;10.87;67.55;101400.19;2025782;28;2794014;-76
2024/03/23 01:14:32;;;;;;;;;12.00;10.00;;;;;10.86;67.80;101396.72;1990042;28;2789815;-75
2024/03/23 01:15:51;;;;;;;;;16.00;12.50;;;;;10.88;67.65;101404.56;2010649;28;2797146;-75
2024/03/23 01:17:03;;;;;;;;;14.25;12.00;;;;;10.88;67.35;101404.56;2029993;28;1852353;-75
2024/03/23 01:18:13;;;;;;;;;18.00;14.50;;;;;10.90;67.70;101408.88;2015262;28;2806527;-75
2024/03/23 01:19:24;;;;;;;;;19.25;12.00;;;;;10.90;67.57;101400.13;2044605;28;1823251;-75
2024/03/23 01:20:37;;;;;;;;;16.83;12.50;;;;;10.90;68.04;101400.13;2020957;28;1827425;-75
2024/03/23 01:21:49;;;;;;;;;13.00;11.50;;;;;10.95;67.68;101413.16;2025723;28;1842497;-75
2024/03/23 01:23:00;;;;;;;;;15.25;12.75;;;;;10.94;67.69;101406.19;2012562;28;1844076;-75
2024/03/23 01:24:11;;;;;;;;;14.00;12.00;;;;;10.94;67.64;101404.41;2017242;28;2791935;-75
2024/03/23 01:25:22;;;;;;;;;12.33;10.33;;;;;10.95;67.52;101400.88;2014019;28;3493991;-75
2024/03/23 01:26:33;;;;;;;;;11.50;11.50;;;;;10.95;67.52;101403.50;2025082;28;2786721;-75
2024/03/23 01:27:44;;;;;;;;;14.00;11.50;;;;;10.97;67.68;101403.47;2033771;28;2785661;-75
2024/03/23 01:28:55;;;;;;;;;12.00;9.33;;;;;10.99;67.65;101401.66;2048561;28;1839948;-75
2024/03/23 01:30:07;;;;;;;;;19.50;10.75;;;;;11.02;67.74;101402.47;2006253;28;1840472;-75
2024/03/23 01:31:18;;;;;;;;;16.33;12.67;;;;;11.05;67.60;101409.41;2015947;28;3525237;-75
2024/03/23 01:32:29;;;;;;;;;16.00;11.00;;;;;11.03;67.47;101406.84;2043350;28;1847158;-75
2024/03/23 01:33:39;;;;;;;;;10.67;10.67;;;;;11.08;67.48;101409.34;1992483;28;3497130;-75
2024/03/23 01:34:50;;;;;;;;;14.50;13.00;;;;;11.06;67.50;101405.91;2033491;28;2802358;-75
2024/03/23 01:36:01;;;;;;;;;12.00;9.00;;;;;11.08;67.23;101411.13;2008921;28;3477706;-76
2024/03/23 01:37:12;;;;;;;;;13.33;9.00;;;;;11.06;67.37;101412.91;2049261;28;1850332;-75
2024/03/23 01:38:23;;;;;;;;;15.50;11.50;;;;;11.02;67.51;101405.09;1993193;28;2801307;-75
2024/03/23 01:39:34;;;;;;;;;14.00;11.00;;;;;11.07;67.50;101401.47;2020740;28;1838317;-75
2024/03/23 01:40:44;;;;;;;;;10.33;10.33;;;;;11.08;67.81;101409.34;1986855;28;3499712;-75
2024/03/23 01:41:55;;;;;;;;;16.50;12.00;;;;;11.05;67.79;101393.63;2010034;28;2800255;-75
2024/03/23 01:43:08;;;;;;;;;13.00;10.00;;;;;11.13;67.41;101402.22;2027303;28;2782548;-75
2024/03/23 01:44:18;;;;;;;;;13.00;10.00;;;;;11.13;67.77;101399.59;2007044;28;2780488;-75
2024/03/23 01:45:30;;;;;;;;;13.50;11.50;;;;;11.20;67.56;101402.91;1992304;28;2791907;-75
2024/03/23 01:46:41;;;;;;;;;9.00;8.00;;;;;11.18;67.52;101402.09;2010354;28;3451778;-74
2024/03/23 01:47:52;;;;;;;;;9.33;8.33;;;;;11.21;67.63;101393.25;2009959;28;3474654;-75
2024/03/23 01:49:05;;;;;;;;;13.00;9.67;;;;;11.24;67.40;101407.19;2013449;28;3504408;-75
2024/03/23 01:50:15;;;;;;;;;14.33;11.00;;;;;11.20;66.89;101397.66;2008489;28;3512727;-74
2024/03/23 01:51:29;;;;;;;;;8.80;8.20;;;;;11.23;67.00;101409.88;2035885;28;2742977;-75
2024/03/23 01:52:39;;;;;;;;;13.00;10.00;;;;;11.21;67.09;101406.41;2015946;28;3502334;-75
2024/03/23 01:53:51;;;;;;;;;12.00;7.00;;;;;11.20;66.98;101408.19;2032924;28;2767073;-75
2024/03/23 01:55:03;;;;;;;;;10.50;10.50;;;;;11.16;66.79;101400.41;2024387;28;1833587;-75
2024/03/23 01:56:13;;;;;;;;;12.50;10.00;;;;;11.16;67.16;101413.56;2008886;28;2780508;-75
2024/03/23 01:57:24;;;;;;;;;12.33;11.00;;;;;11.17;67.23;101405.63;1989053;28;3515830;-75
2024/03/23 01:58:36;;;;;;;;;9.25;9.00;;;;;11.19;67.03;101422.22;2036070;28;2748212;-75
2024/03/23 01:59:47;;;;;;;;;9.67;8.00;;;;;11.13;66.64;101409.25;2005293;28;2744110;-76
2024/03/23 02:00:58;;;;;;;;;14.33;10.33;;;;;11.08;66.76;101409.34;2011103;28;2789897;-75
2024/03/23 02:02:10;;;;;;;;;8.50;7.25;;;;;11.09;66.84;101420.72;2028838;28;2732581;-75
2024/03/23 02:03:26;;;;;;;;;14.00;11.00;;;;;11.08;66.79;101419.88;1994347;28;1844023;-75
2024/03/23 02:04:36;;;;;;;;;9.33;8.00;;;;;11.06;66.82;101415.56;2011503;28;3459660;-75
2024/03/23 02:05:47;;;;;;;;;13.00;9.00;;;;;11.03;66.92;101406.84;2026569;28;2762753;-75
2024/03/23 02:06:59;;;;;;;;;7.00;6.50;;;;;11.05;67.15;101404.16;2034824;28;2745025;-75
2024/03/23 02:08:10;;;;;;;;;9.00;9.00;;;;;11.09;66.66;101404.94;2018303;28;2737733;-75
2024/03/23 02:09:21;;;;;;;;;15.67;9.00;;;;;11.10;66.65;101401.41;2048156;28;1846155;-75
2024/03/23 02:10:31;;;;;;;;;13.00;9.67;;;;;11.07;66.88;101393.59;1993816;28;3484642;-75
2024/03/23 02:11:42;;;;;;;;;12.67;9.33;;;;;11.10;66.94;101404.03;2034032;28;3484650;-75
2024/03/23 02:12:53;;;;;;;;;11.00;9.00;;;;;11.11;66.69;101411.88;2033006;28;3476278;-75
2024/03/23 02:14:04;;;;;;;;;7.33;7.00;;;;;11.14;67.09;101411.81;2030682;28;2734730;-75
2024/03/23 02:15:15;;;;;;;;;11.33;7.00;;;;;11.15;66.16;101423.22;2037003;28;1819170;-74
2024/03/23 02:16:25;;;;;;;;;9.33;6.00;;;;;11.12;66.09;101415.38;1985547;28;3476281;-75
2024/03/23 02:17:36;;;;;;;;;15.00;11.00;;;;;11.10;66.48;101417.19;2031366;28;3515912;-75
2024/03/23 02:18:47;;;;;;;;;13.00;10.00;;;;;11.10;66.39;101406.66;2032652;28;2772211;-74
2024/03/23 02:20:00;;;;;;;;;10.00;8.67;;;;;11.12;66.17;101415.38;2027980;28;3478891;-75
2024/03/23 02:21:10;;;;;;;;;9.67;7.33;;;;;11.10;66.10;101419.81;2010987;28;2751411;-74
2024/03/23 02:22:21;;;;;;;;;13.33;11.00;;;;;11.08;65.37;101411.97;2018670;28;3513787;-75
2024/03/23 02:23:33;;;;;;;;;9.25;9.25;;;;;11.06;65.31;101413.78;2028347;28;2735722;-74
2024/03/23 02:24:43;;;;;;;;;12.00;10.00;;;;;11.02;65.46;101412.13;2008987;28;3499178;-74
2024/03/23 02:25:54;;;;;;;;;11.33;9.33;;;;;10.98;65.46;101415.72;2033423;28;3490856;-74
2024/03/23 02:27:06;;;;;;;;;10.75;8.00;;;;;11.00;65.73;101414.78;2043697;28;2764848;-74
2024/03/23 02:28:20;;;;;;;;;8.17;6.17;;;;;10.99;65.96;101425.34;2044318;28;2746102;-74
2024/03/23 02:29:33;;;;;;;;;9.17;7.00;;;;;10.96;65.85;101409.66;2035550;28;2740948;-74
2024/03/23 02:30:46;;;;;;;;;8.33;6.33;;;;;11.03;66.10;101416.47;2014280;28;2741941;-74
2024/03/23 02:31:59;;;;;;;;;8.50;6.00;;;;;11.03;65.74;101421.75;2017140;28;2746114;-74
2024/03/23 02:33:13;;;;;;;;;6.00;5.33;;;;;11.00;65.88;101432.34;2021819;28;2750777;-74
2024/03/23 02:34:23;;;;;;;;;10.33;8.67;;;;;10.99;65.63;101420.94;2010455;28;2754531;-74
2024/03/23 02:35:34;;;;;;;;;10.33;8.67;;;;;11.03;65.55;101429.63;2041864;28;2765893;-74
2024/03/23 02:36:45;;;;;;;;;8.33;6.00;;;;;11.01;65.78;101424.41;2020873;28;3456482;-74
2024/03/23 02:37:57;;;;;;;;;5.00;5.00;;;;;11.06;65.48;101426.06;2026343;28;2747224;-75
2024/03/23 02:39:10;;;;;;;;;8.50;7.17;;;;;11.02;65.37;101426.13;2036871;28;2737765;-74
2024/03/23 02:40:24;;;;;;;;;7.17;7.00;;;;;11.01;65.57;101429.66;2033908;28;2750305;-74
2024/03/23 02:41:37;;;;;;;;;7.83;7.00;;;;;11.06;65.80;101431.34;2038549;28;2724209;-74
2024/03/23 02:42:51;;;;;;;;;11.67;6.67;;;;;11.05;65.09;101432.22;2043757;28;2764900;-74
2024/03/23 02:44:01;;;;;;;;;10.33;9.00;;;;;11.00;64.92;101433.19;1986291;28;3478408;-75
2024/03/23 02:45:12;;;;;;;;;9.00;7.00;;;;;10.97;65.44;101425.38;2036626;28;2728407;-74
2024/03/23 02:46:25;;;;;;;;;10.33;8.00;;;;;11.00;65.48;101432.34;2017846;28;2758112;-74
2024/03/23 02:47:39;;;;;;;;;7.33;6.83;;;;;10.96;64.67;101423.66;2020336;28;2744051;-74
2024/03/23 02:48:49;;;;;;;;;9.00;8.00;;;;;10.94;64.95;101443.00;2009956;28;2748178;-74
2024/03/23 02:50:01;;;;;;;;;7.33;5.67;;;;;10.87;64.44;101437.00;2035267;28;2746134;-74
2024/03/23 02:51:14;;;;;;;;;9.00;4.17;;;;;10.86;64.10;101437.94;2033020;28;2751346;-74
2024/03/23 02:52:27;;;;;;;;;7.00;5.17;;;;;10.80;64.43;101439.78;2013131;28;2746129;-74
2024/03/23 02:53:37;;;;;;;;;10.00;7.33;;;;;10.79;64.57;101439.84;1985273;28;2761719;-74
2024/03/23 02:54:48;;;;;;;;;11.33;10.33;;;;;10.78;64.87;101444.22;2028308;28;3486705;-77
2024/03/23 02:55:59;;;;;;;;;9.00;5.00;;;;;10.78;65.07;101443.34;2032945;28;2748174;-75
2024/03/23 02:57:13;;;;;;;;;6.50;5.33;;;;;10.75;64.94;101440.78;2015885;28;2745153;-74
2024/03/23 02:58:26;;;;;;;;;7.00;5.00;;;;;10.71;64.89;101440.00;2043486;28;2748237;-74
2024/03/23 02:59:36;;;;;;;;;11.67;7.00;;;;;10.66;65.27;101436.59;1994136;28;2754598;-74
2024/03/23 03:00:47;;;;;;;;;8.00;5.00;;;;;10.65;65.04;101429.59;2034470;28;2746102;-74
2024/03/23 03:01:59;;;;;;;;;11.00;6.33;;;;;10.66;65.24;101442.75;2009913;28;2758623;-74
2024/03/23 03:03:13;;;;;;;;;6.67;6.17;;;;;10.63;64.92;101445.44;2036005;28;2743009;-74
2024/03/23 03:04:23;;;;;;;;;7.67;7.33;;;;;10.58;64.50;101445.53;2010631;28;2744598;-75
2024/03/23 03:05:34;;;;;;;;;6.00;5.33;;;;;10.58;64.85;101440.28;2038168;28;2748189;-74
2024/03/23 03:06:49;;;;;;;;;8.00;5.67;;;;;10.52;65.15;101443.00;2039913;28;2746111;-74
2024/03/23 03:08:02;;;;;;;;;4.00;4.00;;;;;10.58;64.79;101452.53;2020937;28;2754423;-74
2024/03/23 03:09:15;;;;;;;;;4.50;4.00;;;;;10.55;64.61;101448.22;2021397;28;2749268;-74
2024/03/23 03:10:29;;;;;;;;;5.83;4.33;;;;;10.56;64.60;101454.34;2035638;28;2752379;-74
2024/03/23 03:11:42;;;;;;;;;11.17;5.33;;;;;10.52;64.62;101448.28;2012956;28;2765910;-74
2024/03/23 03:12:55;;;;;;;;;5.67;3.17;;;;;10.54;64.24;101451.72;2013226;28;2754455;-74
2024/03/23 03:14:08;;;;;;;;;6.83;4.83;;;;;10.54;64.57;101464.88;2013000;28;2741947;-74
2024/03/23 03:15:22;;;;;;;;;6.67;5.67;;;;;10.52;64.45;101466.66;2012705;28;2748670;-74
2024/03/23 03:16:32;;;;;;;;;7.67;3.00;;;;;10.54;64.89;101456.97;1987387;28;2750367;-74
2024/03/23 03:17:44;;;;;;;;;4.50;3.50;;;;;10.53;63.08;101460.53;2037939;28;2746126;-75
2024/03/23 03:18:58;;;;;;;;;6.50;5.67;;;;;10.50;63.05;101465.81;2042837;28;2743332;-75
2024/03/23 03:20:13;;;;;;;;;6.00;5.00;;;;;10.45;63.44;101459.78;2004809;28;2739858;-74
2024/03/23 03:21:24;;;;;;;;;5.00;4.33;;;;;10.42;63.72;101465.13;1980758;28;2754948;-74
2024/03/23 03:22:35;;;;;;;;;4.67;4.33;;;;;10.35;63.44;101462.59;2037822;28;2730473;-75
2024/03/23 03:23:50;;;;;;;;;5.17;4.00;;;;;10.38;63.59;101468.69;2035426;28;2754450;-74
2024/03/23 03:25:00;;;;;;;;;8.33;4.00;;;;;10.34;63.41;101470.53;1986157;28;3460661;-75
2024/03/23 03:26:12;;;;;;;;;9.25;4.75;;;;;10.34;63.82;101471.41;2035534;28;2751821;-74
2024/03/23 03:27:25;;;;;;;;;4.33;2.33;;;;;10.32;63.62;101473.16;2036269;28;2744034;-74
2024/03/23 03:28:39;;;;;;;;;4.33;3.33;;;;;10.32;63.72;101473.16;2036457;28;2737773;-74
2024/03/23 03:29:52;;;;;;;;;5.83;3.67;;;;;10.32;63.31;101474.97;2038495;28;2746098;-75
2024/03/23 03:31:05;;;;;;;;;4.50;3.50;;;;;10.26;63.16;101481.19;2020287;28;2754460;-74
2024/03/23 03:32:18;;;;;;;;;5.33;2.67;;;;;10.22;63.63;101472.50;2042371;28;2733598;-74
2024/03/23 03:33:31;;;;;;;;;5.33;3.00;;;;;10.23;63.26;101482.13;2005200;28;2733638;-74
2024/03/23 03:34:45;;;;;;;;;6.17;4.00;;;;;10.21;63.44;101483.03;2037910;28;2741952;-73
2024/03/23 03:35:55;;;;;;;;;9.33;4.67;;;;;10.18;63.32;101476.06;2019188;28;2764876;-74
2024/03/23 03:37:07;;;;;;;;;10.00;5.67;;;;;10.18;63.61;101465.56;2033853;28;2762851;-74
2024/03/23 03:38:20;;;;;;;;;5.67;5.00;;;;;10.11;63.23;101466.59;2040130;28;2748249;-74
2024/03/23 03:39:33;;;;;;;;;7.17;4.17;;;;;10.08;63.22;101459.63;2020620;28;2745172;-74
2024/03/23 03:40:44;;;;;;;;;9.33;2.67;;;;;10.11;63.67;101463.97;1983798;28;2768163;-74
2024/03/23 03:41:55;;;;;;;;;5.00;2.33;;;;;10.09;63.47;101461.38;2036084;28;2746102;-74
2024/03/23 03:43:08;;;;;;;;;6.00;2.33;;;;;10.08;63.80;101470.13;2012690;28;2746111;-74
2024/03/23 03:44:21;;;;;;;;;4.00;3.83;;;;;10.10;63.34;101478.84;1999507;28;2748198;-74
2024/03/23 03:45:34;;;;;;;;;7.00;5.50;;;;;10.09;62.93;101478.88;2037084;28;2742997;-74
2024/03/23 03:46:48;;;;;;;;;4.00;2.00;;;;;10.03;62.92;101482.47;2043560;28;2748716;-74
2024/03/23 03:48:01;;;;;;;;;7.17;4.00;;;;;9.96;62.89;101468.63;2045517;28;2743025;-74
2024/03/23 03:49:15;;;;;;;;;5.00;3.33;;;;;9.98;63.30;101479.06;2020725;28;2748787;-74
2024/03/23 03:50:25;;;;;;;;;10.67;3.33;;;;;9.97;62.96;101482.63;2016975;28;2780473;-74
2024/03/23 03:51:36;;;;;;;;;3.33;3.00;;;;;9.93;63.55;101475.66;2043151;28;2746551;-74
2024/03/23 03:52:49;;;;;;;;;3.83;3.00;;;;;9.89;63.81;101481.00;2044218;28;2740958;-74
2024/03/23 03:54:03;;;;;;;;;7.17;4.67;;;;;9.87;63.48;101480.16;2019925;28;2764870;-74
2024/03/23 03:55:16;;;;;;;;;5.50;3.17;;;;;9.88;63.72;101478.38;2006076;28;2754471;-74
2024/03/23 03:56:29;;;;;;;;;5.17;2.00;;;;;9.86;63.74;101490.66;2029284;28;2735666;-74
2024/03/23 03:57:42;;;;;;;;;6.67;2.83;;;;;9.86;63.15;101485.41;2036049;28;2748233;-74
2024/03/23 03:58:56;;;;;;;;;4.67;3.83;;;;;9.85;63.06;101500.31;2020887;28;2754451;-74
2024/03/23 04:00:12;;;;;;;;;5.83;3.00;;;;;9.80;63.33;101504.81;2018065;28;2732554;-74
2024/03/23 04:01:25;;;;;;;;;6.50;2.67;;;;;9.77;62.89;101504.84;2039407;28;2735698;-74
2024/03/23 04:02:39;;;;;;;;;5.33;3.17;;;;;9.78;63.63;101514.44;2044349;28;2736329;-74
2024/03/23 04:03:52;;;;;;;;;5.33;3.00;;;;;9.77;63.34;101510.09;2012748;28;2739887;-74
2024/03/23 04:05:06;;;;;;;;;4.00;4.00;;;;;9.72;63.59;101493.56;2030232;28;2748209;-74
2024/03/23 04:06:19;;;;;;;;;8.33;3.00;;;;;9.76;63.76;101505.72;2042368;28;2746625;-74
2024/03/23 04:07:33;;;;;;;;;6.67;3.00;;;;;9.75;63.75;101506.63;2015220;28;2735686;-74
2024/03/23 04:08:43;;;;;;;;;4.33;3.00;;;;;9.78;63.75;101507.44;1986825;28;2746182;-74
2024/03/23 04:09:54;;;;;;;;;6.67;3.00;;;;;9.80;63.53;101515.31;2024050;28;2754456;-74
2024/03/23 04:11:06;;;;;;;;;4.00;2.00;;;;;9.80;63.52;101507.44;2036893;28;2727361;-74
2024/03/23 04:12:19;;;;;;;;;4.00;3.67;;;;;9.78;63.78;101507.44;2043358;28;2748210;-74
2024/03/23 04:13:33;;;;;;;;;3.00;2.33;;;;;9.83;63.99;101509.97;2020500;28;2744024;-74
2024/03/23 04:14:47;;;;;;;;;8.00;4.50;;;;;9.84;63.72;101503.84;2044067;28;2758640;-74
2024/03/23 04:16:00;;;;;;;;;2.00;2.00;;;;;9.87;63.63;101509.06;2020555;28;2736716;-74
2024/03/23 04:17:13;;;;;;;;;3.00;2.17;;;;;9.85;63.58;101497.69;2030612;28;2741923;-74
2024/03/23 04:18:26;;;;;;;;;2.83;2.50;;;;;9.87;63.85;101497.66;2022752;28;2746111;-74
2024/03/23 04:19:40;;;;;;;;;2.83;2.00;;;;;9.86;63.55;101491.53;2012825;28;2733592;-74
2024/03/23 04:20:54;;;;;;;;;4.00;1.67;;;;;9.87;63.60;101493.28;2021148;28;2739861;-74
2024/03/23 04:22:08;;;;;;;;;5.00;3.33;;;;;9.89;63.33;101504.63;2020218;28;2741952;-75
2024/03/23 04:23:21;;;;;;;;;3.50;3.00;;;;;9.88;63.12;101499.38;2044980;28;2736723;-75
2024/03/23 04:24:34;;;;;;;;;6.33;4.33;;;;;9.83;63.50;101498.63;2034701;28;2743072;-75
2024/03/23 04:25:47;;;;;;;;;2.50;2.50;;;;;9.80;63.51;101494.28;2014314;28;2741995;-75
2024/03/23 04:27:00;;;;;;;;;4.33;4.33;;;;;9.80;63.09;101504.81;2041369;28;2754431;-75
2024/03/23 04:28:14;;;;;;;;;6.00;2.00;;;;;9.78;63.44;101502.19;2044608;28;2746087;-75
2024/03/23 04:29:27;;;;;;;;;5.00;3.67;;;;;9.76;63.37;101500.47;2020327;28;2737812;-75
2024/03/23 04:30:40;;;;;;;;;8.33;3.67;;;;;9.78;63.25;101514.44;2017450;28;2760037;-75
2024/03/23 04:31:53;;;;;;;;;3.67;2.83;;;;;9.73;63.64;101506.63;2021483;28;2729488;-75
2024/03/23 04:33:05;;;;;;;;;8.33;3.00;;;;;9.74;63.82;101507.50;2010207;28;2760712;-75
2024/03/23 04:34:18;;;;;;;;;5.50;2.83;;;;;9.68;64.08;101498.84;2035589;28;2737777;-75
2024/03/23 04:35:29;;;;;;;;;7.33;3.00;;;;;9.68;63.47;101508.47;1987402;28;2754560;-75
2024/03/23 04:36:40;;;;;;;;;6.33;3.00;;;;;9.65;63.70;101514.66;2040673;28;2741951;-75
2024/03/23 04:37:53;;;;;;;;;5.33;3.00;;;;;9.61;63.63;101509.47;2036948;28;2735670;-75
2024/03/23 04:39:04;;;;;;;;;5.67;4.00;;;;;9.60;64.34;101511.25;1994950;28;2746127;-75
2024/03/23 04:40:15;;;;;;;;;2.33;2.33;;;;;9.58;64.05;101513.00;2042071;28;2746114;-75
2024/03/23 04:41:28;;;;;;;;;5.00;2.67;;;;;9.63;63.75;101529.56;2022988;28;2736747;-75
2024/03/23 04:42:41;;;;;;;;;4.50;3.67;;;;;9.61;63.90;101533.97;2020688;28;2750595;-75
2024/03/23 04:43:54;;;;;;;;;3.00;3.00;;;;;9.55;63.75;101526.19;2005861;28;2735742;-75
2024/03/23 04:45:08;;;;;;;;;4.00;3.00;;;;;9.50;63.93;101525.41;2032333;28;2733627;-75
2024/03/23 04:46:22;;;;;;;;;3.00;2.00;;;;;9.52;64.19;101526.25;2043344;28;2746101;-75
2024/03/23 04:47:35;;;;;;;;;5.17;3.00;;;;;9.53;64.09;101530.63;2012514;28;2734667;-75
2024/03/23 04:48:48;;;;;;;;;5.33;3.33;;;;;9.49;64.27;101524.53;2037314;28;2754436;-75
2024/03/23 04:50:03;;;;;;;;;6.00;3.00;;;;;9.51;64.28;101532.38;2009540;28;2735698;-75
2024/03/23 04:51:21;;;;;;;;;8.00;4.00;;;;;9.55;63.94;101544.56;2004122;28;2760689;-75
2024/03/23 04:52:34;;;;;;;;;5.83;3.67;;;;;9.48;63.98;101533.31;2044838;28;2740492;-75
2024/03/23 04:53:48;;;;;;;;;4.67;4.67;;;;;9.48;64.06;101540.31;2019972;28;2754486;-75
2024/03/23 04:55:01;;;;;;;;;4.67;3.67;;;;;9.49;64.00;101542.03;2021226;28;2729429;-75
2024/03/23 04:56:15;;;;;;;;;3.00;3.00;;;;;9.51;64.37;101542.88;2043150;28;2752340;-75
2024/03/23 04:57:29;;;;;;;;;3.50;2.83;;;;;9.49;63.60;101549.91;2013679;28;2731508;-75
2024/03/23 04:58:40;;;;;;;;;7.00;3.00;;;;;9.50;63.75;101543.78;2009347;28;2754479;-75
2024/03/23 04:59:53;;;;;;;;;2.83;1.83;;;;;9.50;63.64;101551.66;2032116;28;2744015;-75
2024/03/23 05:01:06;;;;;;;;;2.67;2.17;;;;;9.49;64.04;101542.03;2042894;28;2741953;-75
2024/03/23 05:02:19;;;;;;;;;4.50;2.50;;;;;9.48;64.08;101538.56;2044293;28;2740903;-75
2024/03/23 05:03:33;;;;;;;;;5.33;4.33;;;;;9.48;64.07;101553.44;2022158;28;2741937;-75
2024/03/23 05:04:46;;;;;;;;;5.17;4.00;;;;;9.47;64.08;101544.69;2021369;28;2754452;-75
2024/03/23 05:05:56;;;;;;;;;4.00;1.00;;;;;9.49;63.99;101555.16;2011070;28;2744039;-75
2024/03/23 05:07:07;;;;;;;;;3.00;3.00;;;;;9.52;64.27;101565.59;2036096;28;2737785;-75
2024/03/23 05:08:21;;;;;;;;;4.33;3.67;;;;;9.53;63.80;101556.84;2015068;28;2741967;-75
2024/03/23 05:09:34;;;;;;;;;4.83;3.67;;;;;9.55;64.15;101555.94;2014796;28;2733614;-75
2024/03/23 05:10:47;;;;;;;;;2.83;2.00;;;;;9.56;64.20;101562.91;2040093;28;2739887;-75
2024/03/23 05:12:00;;;;;;;;;6.50;4.00;;;;;9.60;63.96;101561.13;2045379;28;2754479;-75
2024/03/23 05:13:13;;;;;;;;;6.67;4.83;;;;;9.61;64.06;101562.84;2021835;28;2758949;-75
2024/03/23 05:14:27;;;;;;;;;2.33;2.17;;;;;9.61;63.98;101565.47;2021428;28;2746106;-75
2024/03/23 05:15:40;;;;;;;;;2.00;2.00;;;;;9.62;63.69;101561.97;2045211;28;2746110;-75
2024/03/23 05:16:54;;;;;;;;;4.00;2.83;;;;;9.61;63.54;101565.47;2045742;28;2736735;-75
2024/03/23 05:18:07;;;;;;;;;4.33;2.17;;;;;9.58;63.37;101565.50;2045404;28;2741010;-75
2024/03/23 05:19:20;;;;;;;;;2.67;2.67;;;;;9.60;62.74;101573.38;2036470;28;2754435;-75
2024/03/23 05:20:33;;;;;;;;;4.17;3.00;;;;;9.57;63.05;101576.91;2038553;28;2736744;-75
2024/03/23 05:21:46;;;;;;;;;5.50;3.50;;;;;9.54;63.39;101580.44;2013648;28;2730478;-75
2024/03/23 05:23:00;;;;;;;;;5.17;3.67;;;;;9.54;63.54;101569.06;2035723;28;2752747;-75
2024/03/23 05:24:13;;;;;;;;;4.67;2.00;;;;;9.52;63.29;101569.09;2006056;28;2734701;-75
2024/03/23 05:25:26;;;;;;;;;3.83;3.83;;;;;9.51;63.12;101574.34;2038452;28;2737134;-74
2024/03/23 05:26:39;;;;;;;;;3.83;3.83;;;;;9.49;63.00;101571.78;2031757;28;2744030;-75